sensor_id;sensor_type;location;lat;lon;timestamp;P1;durP1;ratioP1;P2;durP2;ratioP2
74245;SDS011;62601;51.044;13.788;2023-06-01T00:02:15;5.30;;;3.53;;
74245;SDS011;62601;51.044;13.788;2023-06-01T00:04:35;6.93;;;3.90;;
74245;SDS011;62601;51.044;13.788;2023-06-01T00:06:55;5.37;;;4.07;;
74245;SDS011;62601;51.044;13.788;2023-06-01T00:09:15;6.63;;;4.00;;
74245;SDS011;62601;51.044;13.788;2023-06-01T00:11:35;5.60;;;4.67;;
74245;SDS011;62601;51.044;13.788;2023-06-01T00:13:55;4.97;;;4.03;;
74245;SDS011;62601;51.044;13.788;2023-06-01T00:16:16;6.47;;;4.03;;
74245;SDS011;62601;51.044;13.788;2023-06-01T00:18:36;5.63;;;4.50;;
74245;SDS011;62601;51.044;13.788;2023-06-01T00:20:56;4.80;;;3.73;;
74245;SDS011;62601;51.044;13.788;2023-06-01T00:23:16;5.50;;;4.30;;
74245;SDS011;62601;51.044;13.788;2023-06-01T00:25:36;11.90;;;4.10;;
74245;SDS011;62601;51.044;13.788;2023-06-01T00:27:56;8.10;;;3.93;;
74245;SDS011;62601;51.044;13.788;2023-06-01T00:30:16;5.50;;;4.17;;
74245;SDS011;62601;51.044;13.788;2023-06-01T00:32:36;8.40;;;4.03;;
74245;SDS011;62601;51.044;13.788;2023-06-01T00:34:56;4.60;;;4.00;;
74245;SDS011;62601;51.044;13.788;2023-06-01T00:37:17;5.83;;;3.77;;
74245;SDS011;62601;51.044;13.788;2023-06-01T00:39:37;4.43;;;3.70;;
74245;SDS011;62601;51.044;13.788;2023-06-01T00:41:57;5.30;;;4.07;;
74245;SDS011;62601;51.044;13.788;2023-06-01T00:44:17;7.37;;;4.33;;
74245;SDS011;62601;51.044;13.788;2023-06-01T00:46:37;7.03;;;4.57;;
74245;SDS011;62601;51.044;13.788;2023-06-01T00:48:58;4.80;;;3.90;;
74245;SDS011;62601;51.044;13.788;2023-06-01T00:51:18;4.83;;;4.30;;
74245;SDS011;62601;51.044;13.788;2023-06-01T00:53:38;5.90;;;4.33;;
74245;SDS011;62601;51.044;13.788;2023-06-01T00:55:58;5.27;;;4.37;;
74245;SDS011;62601;51.044;13.788;2023-06-01T00:58:18;5.27;;;4.10;;
74245;SDS011;62601;51.044;13.788;2023-06-01T01:00:39;6.90;;;3.90;;
74245;SDS011;62601;51.044;13.788;2023-06-01T01:02:59;4.57;;;4.17;;
74245;SDS011;62601;51.044;13.788;2023-06-01T01:05:19;4.57;;;3.93;;
74245;SDS011;62601;51.044;13.788;2023-06-01T01:10:05;6.00;;;4.43;;
74245;SDS011;62601;51.044;13.788;2023-06-01T01:12:31;4.27;;;3.70;;
74245;SDS011;62601;51.044;13.788;2023-06-01T01:14:55;6.97;;;4.10;;
74245;SDS011;62601;51.044;13.788;2023-06-01T01:17:22;5.77;;;5.27;;
74245;SDS011;62601;51.044;13.788;2023-06-01T01:20:02;5.97;;;3.83;;
74245;SDS011;62601;51.044;13.788;2023-06-01T01:22:39;5.00;;;4.40;;
74245;SDS011;62601;51.044;13.788;2023-06-01T01:27:50;5.67;;;4.00;;
74245;SDS011;62601;51.044;13.788;2023-06-01T01:30:12;5.70;;;3.63;;
74245;SDS011;62601;51.044;13.788;2023-06-01T01:32:33;5.17;;;3.80;;
74245;SDS011;62601;51.044;13.788;2023-06-01T01:34:54;4.40;;;4.00;;
74245;SDS011;62601;51.044;13.788;2023-06-01T01:37:15;3.80;;;3.50;;
74245;SDS011;62601;51.044;13.788;2023-06-01T01:39:35;4.40;;;3.90;;
74245;SDS011;62601;51.044;13.788;2023-06-01T01:41:55;5.43;;;3.90;;
74245;SDS011;62601;51.044;13.788;2023-06-01T01:44:15;4.10;;;3.80;;
74245;SDS011;62601;51.044;13.788;2023-06-01T01:46:38;4.60;;;4.17;;
74245;SDS011;62601;51.044;13.788;2023-06-01T01:54:00;7.70;;;4.30;;
74245;SDS011;62601;51.044;13.788;2023-06-01T01:56:23;4.80;;;3.97;;
74245;SDS011;62601;51.044;13.788;2023-06-01T01:58:43;5.23;;;4.00;;
74245;SDS011;62601;51.044;13.788;2023-06-01T02:01:03;4.53;;;3.83;;
74245;SDS011;62601;51.044;13.788;2023-06-01T02:03:24;6.67;;;4.23;;
74245;SDS011;62601;51.044;13.788;2023-06-01T02:05:44;6.30;;;5.00;;
74245;SDS011;62601;51.044;13.788;2023-06-01T02:08:04;4.73;;;3.63;;
74245;SDS011;62601;51.044;13.788;2023-06-01T02:10:24;4.93;;;4.30;;
74245;SDS011;62601;51.044;13.788;2023-06-01T02:12:44;6.70;;;4.67;;
74245;SDS011;62601;51.044;13.788;2023-06-01T02:15:05;5.33;;;4.83;;
74245;SDS011;62601;51.044;13.788;2023-06-01T02:17:25;6.33;;;5.27;;
74245;SDS011;62601;51.044;13.788;2023-06-01T02:19:45;6.27;;;4.13;;
74245;SDS011;62601;51.044;13.788;2023-06-01T02:22:05;6.77;;;4.30;;
74245;SDS011;62601;51.044;13.788;2023-06-01T02:24:25;4.20;;;3.90;;
74245;SDS011;62601;51.044;13.788;2023-06-01T02:26:46;5.90;;;4.23;;
74245;SDS011;62601;51.044;13.788;2023-06-01T02:29:06;10.40;;;4.40;;
74245;SDS011;62601;51.044;13.788;2023-06-01T02:31:26;6.40;;;4.10;;
74245;SDS011;62601;51.044;13.788;2023-06-01T02:33:46;5.17;;;4.20;;
74245;SDS011;62601;51.044;13.788;2023-06-01T02:36:06;5.03;;;4.03;;
74245;SDS011;62601;51.044;13.788;2023-06-01T02:38:26;5.30;;;3.77;;
74245;SDS011;62601;51.044;13.788;2023-06-01T02:40:47;4.00;;;3.70;;
74245;SDS011;62601;51.044;13.788;2023-06-01T02:43:07;6.43;;;4.37;;
74245;SDS011;62601;51.044;13.788;2023-06-01T02:45:27;8.57;;;4.30;;
74245;SDS011;62601;51.044;13.788;2023-06-01T02:47:47;7.30;;;4.47;;
74245;SDS011;62601;51.044;13.788;2023-06-01T02:50:07;4.67;;;4.00;;
74245;SDS011;62601;51.044;13.788;2023-06-01T02:52:27;5.30;;;4.53;;
74245;SDS011;62601;51.044;13.788;2023-06-01T02:54:47;5.80;;;3.93;;
74245;SDS011;62601;51.044;13.788;2023-06-01T02:57:07;4.87;;;4.47;;
74245;SDS011;62601;51.044;13.788;2023-06-01T02:59:27;6.47;;;4.40;;
74245;SDS011;62601;51.044;13.788;2023-06-01T03:01:47;5.90;;;4.60;;
74245;SDS011;62601;51.044;13.788;2023-06-01T03:04:08;4.70;;;3.90;;
74245;SDS011;62601;51.044;13.788;2023-06-01T03:06:28;9.17;;;4.77;;
74245;SDS011;62601;51.044;13.788;2023-06-01T03:08:48;6.30;;;4.10;;
74245;SDS011;62601;51.044;13.788;2023-06-01T03:11:08;4.20;;;3.80;;
74245;SDS011;62601;51.044;13.788;2023-06-01T03:13:28;4.93;;;4.40;;
74245;SDS011;62601;51.044;13.788;2023-06-01T03:15:48;4.50;;;4.10;;
74245;SDS011;62601;51.044;13.788;2023-06-01T03:18:08;5.37;;;4.03;;
74245;SDS011;62601;51.044;13.788;2023-06-01T03:20:29;8.87;;;7.93;;
74245;SDS011;62601;51.044;13.788;2023-06-01T03:22:49;6.50;;;5.73;;
74245;SDS011;62601;51.044;13.788;2023-06-01T03:25:09;6.10;;;4.97;;
74245;SDS011;62601;51.044;13.788;2023-06-01T03:27:29;5.10;;;4.27;;
74245;SDS011;62601;51.044;13.788;2023-06-01T03:29:49;5.23;;;4.47;;
74245;SDS011;62601;51.044;13.788;2023-06-01T03:32:09;5.63;;;4.40;;
74245;SDS011;62601;51.044;13.788;2023-06-01T03:34:29;5.10;;;4.27;;
74245;SDS011;62601;51.044;13.788;2023-06-01T03:36:49;6.70;;;4.27;;
74245;SDS011;62601;51.044;13.788;2023-06-01T03:39:09;5.20;;;4.40;;
74245;SDS011;62601;51.044;13.788;2023-06-01T03:41:30;4.90;;;4.37;;
74245;SDS011;62601;51.044;13.788;2023-06-01T03:43:50;6.70;;;4.60;;
74245;SDS011;62601;51.044;13.788;2023-06-01T03:46:10;6.53;;;4.80;;
74245;SDS011;62601;51.044;13.788;2023-06-01T03:48:30;5.03;;;4.53;;
74245;SDS011;62601;51.044;13.788;2023-06-01T03:50:50;9.57;;;4.40;;
74245;SDS011;62601;51.044;13.788;2023-06-01T03:53:10;4.73;;;4.20;;
74245;SDS011;62601;51.044;13.788;2023-06-01T03:55:30;7.93;;;4.70;;
74245;SDS011;62601;51.044;13.788;2023-06-01T03:57:50;4.67;;;4.20;;
74245;SDS011;62601;51.044;13.788;2023-06-01T04:00:10;4.80;;;4.20;;
74245;SDS011;62601;51.044;13.788;2023-06-01T04:02:31;6.50;;;4.77;;
74245;SDS011;62601;51.044;13.788;2023-06-01T04:04:51;6.83;;;4.77;;
74245;SDS011;62601;51.044;13.788;2023-06-01T04:07:14;5.07;;;3.93;;
74245;SDS011;62601;51.044;13.788;2023-06-01T04:09:34;5.93;;;4.43;;
74245;SDS011;62601;51.044;13.788;2023-06-01T04:11:54;6.77;;;4.70;;
74245;SDS011;62601;51.044;13.788;2023-06-01T04:14:14;6.03;;;4.47;;
74245;SDS011;62601;51.044;13.788;2023-06-01T04:16:34;12.40;;;5.50;;
74245;SDS011;62601;51.044;13.788;2023-06-01T04:18:55;10.40;;;5.27;;
74245;SDS011;62601;51.044;13.788;2023-06-01T04:21:16;5.20;;;4.70;;
74245;SDS011;62601;51.044;13.788;2023-06-01T04:23:37;7.30;;;5.53;;
74245;SDS011;62601;51.044;13.788;2023-06-01T04:25:58;7.40;;;5.80;;
74245;SDS011;62601;51.044;13.788;2023-06-01T04:28:18;8.57;;;5.30;;
74245;SDS011;62601;51.044;13.788;2023-06-01T04:30:39;5.60;;;4.77;;
74245;SDS011;62601;51.044;13.788;2023-06-01T04:33:00;7.77;;;5.73;;
74245;SDS011;62601;51.044;13.788;2023-06-01T04:35:20;4.97;;;4.33;;
74245;SDS011;62601;51.044;13.788;2023-06-01T04:37:40;6.33;;;5.03;;
74245;SDS011;62601;51.044;13.788;2023-06-01T04:40:01;5.90;;;4.83;;
74245;SDS011;62601;51.044;13.788;2023-06-01T04:42:21;8.37;;;6.57;;
74245;SDS011;62601;51.044;13.788;2023-06-01T04:44:42;7.23;;;5.00;;
74245;SDS011;62601;51.044;13.788;2023-06-01T04:47:03;8.80;;;5.93;;
74245;SDS011;62601;51.044;13.788;2023-06-01T04:49:25;6.70;;;5.43;;
74245;SDS011;62601;51.044;13.788;2023-06-01T04:51:45;8.83;;;5.23;;
74245;SDS011;62601;51.044;13.788;2023-06-01T04:54:06;6.03;;;5.40;;
74245;SDS011;62601;51.044;13.788;2023-06-01T04:56:27;5.40;;;4.60;;
74245;SDS011;62601;51.044;13.788;2023-06-01T04:58:48;6.20;;;4.43;;
74245;SDS011;62601;51.044;13.788;2023-06-01T05:01:10;7.27;;;4.97;;
74245;SDS011;62601;51.044;13.788;2023-06-01T05:03:31;6.70;;;4.70;;
74245;SDS011;62601;51.044;13.788;2023-06-01T05:05:52;6.90;;;4.57;;
74245;SDS011;62601;51.044;13.788;2023-06-01T05:08:12;5.83;;;4.23;;
74245;SDS011;62601;51.044;13.788;2023-06-01T05:10:34;8.97;;;4.50;;
74245;SDS011;62601;51.044;13.788;2023-06-01T05:12:55;5.87;;;3.83;;
74245;SDS011;62601;51.044;13.788;2023-06-01T05:15:15;5.07;;;4.30;;
74245;SDS011;62601;51.044;13.788;2023-06-01T05:17:36;6.30;;;4.23;;
74245;SDS011;62601;51.044;13.788;2023-06-01T05:19:57;7.13;;;4.60;;
74245;SDS011;62601;51.044;13.788;2023-06-01T05:22:18;8.40;;;4.73;;
74245;SDS011;62601;51.044;13.788;2023-06-01T05:24:38;5.17;;;4.30;;
74245;SDS011;62601;51.044;13.788;2023-06-01T05:26:59;6.57;;;5.70;;
74245;SDS011;62601;51.044;13.788;2023-06-01T05:29:19;6.00;;;4.53;;
74245;SDS011;62601;51.044;13.788;2023-06-01T05:31:41;11.77;;;4.30;;
74245;SDS011;62601;51.044;13.788;2023-06-01T05:34:01;6.33;;;4.73;;
74245;SDS011;62601;51.044;13.788;2023-06-01T05:36:21;5.80;;;4.53;;
74245;SDS011;62601;51.044;13.788;2023-06-01T05:38:41;6.20;;;4.73;;
74245;SDS011;62601;51.044;13.788;2023-06-01T05:41:01;7.20;;;4.73;;
74245;SDS011;62601;51.044;13.788;2023-06-01T05:43:21;7.30;;;4.80;;
74245;SDS011;62601;51.044;13.788;2023-06-01T05:45:41;6.50;;;4.63;;
74245;SDS011;62601;51.044;13.788;2023-06-01T05:48:01;8.87;;;5.07;;
74245;SDS011;62601;51.044;13.788;2023-06-01T05:50:21;7.50;;;4.63;;
74245;SDS011;62601;51.044;13.788;2023-06-01T05:52:42;5.17;;;4.67;;
74245;SDS011;62601;51.044;13.788;2023-06-01T05:55:02;5.70;;;4.60;;
74245;SDS011;62601;51.044;13.788;2023-06-01T05:57:22;6.03;;;5.07;;
74245;SDS011;62601;51.044;13.788;2023-06-01T05:59:42;7.60;;;4.80;;
74245;SDS011;62601;51.044;13.788;2023-06-01T06:02:02;5.40;;;4.90;;
74245;SDS011;62601;51.044;13.788;2023-06-01T06:04:23;6.43;;;4.60;;
74245;SDS011;62601;51.044;13.788;2023-06-01T06:06:44;9.67;;;5.13;;
74245;SDS011;62601;51.044;13.788;2023-06-01T06:09:04;6.80;;;5.03;;
74245;SDS011;62601;51.044;13.788;2023-06-01T06:11:25;8.40;;;5.23;;
74245;SDS011;62601;51.044;13.788;2023-06-01T06:13:47;7.13;;;4.40;;
74245;SDS011;62601;51.044;13.788;2023-06-01T06:16:08;7.53;;;4.50;;
74245;SDS011;62601;51.044;13.788;2023-06-01T06:18:28;8.20;;;4.40;;
74245;SDS011;62601;51.044;13.788;2023-06-01T06:20:49;7.50;;;3.50;;
74245;SDS011;62601;51.044;13.788;2023-06-01T06:23:10;8.23;;;4.70;;
74245;SDS011;62601;51.044;13.788;2023-06-01T06:25:30;7.63;;;4.70;;
74245;SDS011;62601;51.044;13.788;2023-06-01T06:27:50;14.13;;;5.17;;
74245;SDS011;62601;51.044;13.788;2023-06-01T06:30:10;12.23;;;5.27;;
74245;SDS011;62601;51.044;13.788;2023-06-01T06:32:31;7.40;;;4.43;;
74245;SDS011;62601;51.044;13.788;2023-06-01T06:34:51;10.40;;;4.73;;
74245;SDS011;62601;51.044;13.788;2023-06-01T06:37:11;11.17;;;4.83;;
74245;SDS011;62601;51.044;13.788;2023-06-01T06:39:31;6.00;;;4.90;;
74245;SDS011;62601;51.044;13.788;2023-06-01T06:41:51;7.60;;;4.30;;
74245;SDS011;62601;51.044;13.788;2023-06-01T06:44:11;6.93;;;3.80;;
74245;SDS011;62601;51.044;13.788;2023-06-01T06:46:31;12.10;;;4.60;;
74245;SDS011;62601;51.044;13.788;2023-06-01T06:48:54;10.13;;;4.50;;
74245;SDS011;62601;51.044;13.788;2023-06-01T06:51:14;15.77;;;4.97;;
74245;SDS011;62601;51.044;13.788;2023-06-01T06:53:34;9.77;;;4.67;;
74245;SDS011;62601;51.044;13.788;2023-06-01T06:55:54;14.77;;;4.40;;
74245;SDS011;62601;51.044;13.788;2023-06-01T06:58:14;13.00;;;4.53;;
74245;SDS011;62601;51.044;13.788;2023-06-01T07:00:34;8.03;;;4.17;;
74245;SDS011;62601;51.044;13.788;2023-06-01T07:02:54;14.50;;;3.47;;
74245;SDS011;62601;51.044;13.788;2023-06-01T07:05:14;6.90;;;3.40;;
74245;SDS011;62601;51.044;13.788;2023-06-01T07:07:35;10.43;;;4.03;;
74245;SDS011;62601;51.044;13.788;2023-06-01T07:09:55;10.30;;;4.37;;
74245;SDS011;62601;51.044;13.788;2023-06-01T07:12:15;7.53;;;4.13;;
74245;SDS011;62601;51.044;13.788;2023-06-01T07:14:35;5.37;;;4.10;;
74245;SDS011;62601;51.044;13.788;2023-06-01T07:16:55;6.00;;;3.70;;
74245;SDS011;62601;51.044;13.788;2023-06-01T07:19:15;9.20;;;4.37;;
74245;SDS011;62601;51.044;13.788;2023-06-01T07:21:36;10.07;;;4.30;;
74245;SDS011;62601;51.044;13.788;2023-06-01T07:23:56;6.20;;;4.00;;
74245;SDS011;62601;51.044;13.788;2023-06-01T07:26:17;8.90;;;4.53;;
74245;SDS011;62601;51.044;13.788;2023-06-01T07:28:37;6.30;;;4.43;;
74245;SDS011;62601;51.044;13.788;2023-06-01T07:30:57;5.30;;;3.70;;
74245;SDS011;62601;51.044;13.788;2023-06-01T07:33:17;7.30;;;3.60;;
74245;SDS011;62601;51.044;13.788;2023-06-01T07:35:37;5.43;;;3.50;;
74245;SDS011;62601;51.044;13.788;2023-06-01T07:37:57;10.40;;;4.47;;
74245;SDS011;62601;51.044;13.788;2023-06-01T07:40:17;4.93;;;3.70;;
74245;SDS011;62601;51.044;13.788;2023-06-01T07:42:37;6.40;;;4.07;;
74245;SDS011;62601;51.044;13.788;2023-06-01T07:44:57;5.93;;;3.63;;
74245;SDS011;62601;51.044;13.788;2023-06-01T07:47:17;8.17;;;4.63;;
74245;SDS011;62601;51.044;13.788;2023-06-01T07:49:37;9.60;;;4.43;;
74245;SDS011;62601;51.044;13.788;2023-06-01T07:51:58;6.80;;;3.93;;
74245;SDS011;62601;51.044;13.788;2023-06-01T07:54:18;8.30;;;4.60;;
74245;SDS011;62601;51.044;13.788;2023-06-01T07:56:38;6.07;;;3.83;;
74245;SDS011;62601;51.044;13.788;2023-06-01T07:58:58;5.57;;;4.20;;
74245;SDS011;62601;51.044;13.788;2023-06-01T08:01:18;7.40;;;3.83;;
74245;SDS011;62601;51.044;13.788;2023-06-01T08:03:41;8.70;;;3.90;;
74245;SDS011;62601;51.044;13.788;2023-06-01T08:06:01;8.20;;;4.70;;
74245;SDS011;62601;51.044;13.788;2023-06-01T08:08:22;12.37;;;4.20;;
74245;SDS011;62601;51.044;13.788;2023-06-01T08:10:42;4.90;;;3.83;;
74245;SDS011;62601;51.044;13.788;2023-06-01T08:13:02;8.23;;;4.80;;
74245;SDS011;62601;51.044;13.788;2023-06-01T08:15:22;8.17;;;5.70;;
74245;SDS011;62601;51.044;13.788;2023-06-01T08:17:43;7.83;;;3.80;;
74245;SDS011;62601;51.044;13.788;2023-06-01T08:20:03;10.10;;;5.00;;
74245;SDS011;62601;51.044;13.788;2023-06-01T08:22:23;5.87;;;4.13;;
74245;SDS011;62601;51.044;13.788;2023-06-01T08:24:43;5.67;;;3.77;;
74245;SDS011;62601;51.044;13.788;2023-06-01T08:27:15;8.07;;;3.90;;
74245;SDS011;62601;51.044;13.788;2023-06-01T08:29:36;3.83;;;3.43;;
74245;SDS011;62601;51.044;13.788;2023-06-01T08:31:56;6.47;;;3.73;;
74245;SDS011;62601;51.044;13.788;2023-06-01T08:34:16;7.00;;;4.33;;
74245;SDS011;62601;51.044;13.788;2023-06-01T08:36:37;5.27;;;3.97;;
74245;SDS011;62601;51.044;13.788;2023-06-01T08:38:57;5.30;;;3.37;;
74245;SDS011;62601;51.044;13.788;2023-06-01T08:41:22;5.27;;;3.57;;
74245;SDS011;62601;51.044;13.788;2023-06-01T08:43:45;8.30;;;4.10;;
74245;SDS011;62601;51.044;13.788;2023-06-01T08:46:08;5.37;;;3.87;;
74245;SDS011;62601;51.044;13.788;2023-06-01T08:48:29;6.13;;;3.10;;
74245;SDS011;62601;51.044;13.788;2023-06-01T08:50:51;5.40;;;3.20;;
74245;SDS011;62601;51.044;13.788;2023-06-01T08:53:11;3.53;;;3.13;;
74245;SDS011;62601;51.044;13.788;2023-06-01T08:55:31;8.30;;;3.57;;
74245;SDS011;62601;51.044;13.788;2023-06-01T08:57:52;5.87;;;3.53;;
74245;SDS011;62601;51.044;13.788;2023-06-01T09:00:13;5.37;;;3.90;;
74245;SDS011;62601;51.044;13.788;2023-06-01T09:02:33;6.00;;;3.60;;
74245;SDS011;62601;51.044;13.788;2023-06-01T09:04:53;5.53;;;3.00;;
74245;SDS011;62601;51.044;13.788;2023-06-01T09:07:14;7.33;;;4.03;;
74245;SDS011;62601;51.044;13.788;2023-06-01T09:09:34;5.63;;;3.23;;
74245;SDS011;62601;51.044;13.788;2023-06-01T09:14:33;7.73;;;3.43;;
74245;SDS011;62601;51.044;13.788;2023-06-01T09:16:53;4.97;;;3.10;;
74245;SDS011;62601;51.044;13.788;2023-06-01T09:19:14;8.33;;;3.50;;
74245;SDS011;62601;51.044;13.788;2023-06-01T09:21:35;8.60;;;4.77;;
74245;SDS011;62601;51.044;13.788;2023-06-01T09:23:55;7.00;;;3.40;;
74245;SDS011;62601;51.044;13.788;2023-06-01T09:26:17;4.60;;;3.40;;
74245;SDS011;62601;51.044;13.788;2023-06-01T09:28:53;5.80;;;3.13;;
74245;SDS011;62601;51.044;13.788;2023-06-01T09:31:22;8.03;;;3.37;;
74245;SDS011;62601;51.044;13.788;2023-06-01T09:33:58;3.93;;;2.40;;
74245;SDS011;62601;51.044;13.788;2023-06-01T09:36:23;9.13;;;3.50;;
74245;SDS011;62601;51.044;13.788;2023-06-01T09:38:43;4.30;;;2.93;;
74245;SDS011;62601;51.044;13.788;2023-06-01T09:41:03;3.73;;;2.83;;
74245;SDS011;62601;51.044;13.788;2023-06-01T09:43:23;5.43;;;2.70;;
74245;SDS011;62601;51.044;13.788;2023-06-01T09:45:43;5.40;;;2.70;;
74245;SDS011;62601;51.044;13.788;2023-06-01T09:48:17;4.17;;;2.70;;
74245;SDS011;62601;51.044;13.788;2023-06-01T09:50:38;3.60;;;2.23;;
74245;SDS011;62601;51.044;13.788;2023-06-01T09:52:58;4.60;;;2.60;;
74245;SDS011;62601;51.044;13.788;2023-06-01T09:55:18;3.27;;;2.80;;
74245;SDS011;62601;51.044;13.788;2023-06-01T09:57:38;3.30;;;2.30;;
74245;SDS011;62601;51.044;13.788;2023-06-01T09:59:58;3.63;;;2.67;;
74245;SDS011;62601;51.044;13.788;2023-06-01T10:02:21;3.17;;;2.40;;
74245;SDS011;62601;51.044;13.788;2023-06-01T10:04:44;9.00;;;3.20;;
74245;SDS011;62601;51.044;13.788;2023-06-01T10:07:04;3.43;;;2.70;;
74245;SDS011;62601;51.044;13.788;2023-06-01T10:09:25;3.10;;;2.40;;
74245;SDS011;62601;51.044;13.788;2023-06-01T10:11:46;4.53;;;3.20;;
74245;SDS011;62601;51.044;13.788;2023-06-01T10:14:06;4.47;;;3.30;;
74245;SDS011;62601;51.044;13.788;2023-06-01T10:16:26;3.63;;;2.90;;
74245;SDS011;62601;51.044;13.788;2023-06-01T10:18:46;3.40;;;2.60;;
74245;SDS011;62601;51.044;13.788;2023-06-01T10:21:07;3.03;;;2.50;;
74245;SDS011;62601;51.044;13.788;2023-06-01T10:23:27;4.87;;;2.80;;
74245;SDS011;62601;51.044;13.788;2023-06-01T10:25:48;7.40;;;3.10;;
74245;SDS011;62601;51.044;13.788;2023-06-01T10:28:10;3.97;;;2.60;;
74245;SDS011;62601;51.044;13.788;2023-06-01T10:30:30;3.37;;;2.77;;
74245;SDS011;62601;51.044;13.788;2023-06-01T10:32:50;5.33;;;2.77;;
74245;SDS011;62601;51.044;13.788;2023-06-01T10:38:20;5.30;;;2.80;;
74245;SDS011;62601;51.044;13.788;2023-06-01T10:40:27;3.33;;;2.10;;
74245;SDS011;62601;51.044;13.788;2023-06-01T10:42:47;4.23;;;2.80;;
74245;SDS011;62601;51.044;13.788;2023-06-01T10:45:09;5.63;;;3.23;;
74245;SDS011;62601;51.044;13.788;2023-06-01T10:47:48;4.20;;;3.13;;
74245;SDS011;62601;51.044;13.788;2023-06-01T10:50:08;2.97;;;2.73;;
74245;SDS011;62601;51.044;13.788;2023-06-01T10:54:52;7.00;;;3.13;;
74245;SDS011;62601;51.044;13.788;2023-06-01T10:57:19;2.83;;;2.50;;
74245;SDS011;62601;51.044;13.788;2023-06-01T10:59:39;4.40;;;3.13;;
74245;SDS011;62601;51.044;13.788;2023-06-01T11:02:02;7.83;;;3.40;;
74245;SDS011;62601;51.044;13.788;2023-06-01T11:04:34;3.63;;;3.00;;
74245;SDS011;62601;51.044;13.788;2023-06-01T11:06:54;4.10;;;3.47;;
74245;SDS011;62601;51.044;13.788;2023-06-01T11:09:14;5.63;;;3.07;;
74245;SDS011;62601;51.044;13.788;2023-06-01T11:14:10;3.33;;;2.70;;
74245;SDS011;62601;51.044;13.788;2023-06-01T11:16:31;5.70;;;3.23;;
74245;SDS011;62601;51.044;13.788;2023-06-01T11:18:58;6.13;;;3.30;;
74245;SDS011;62601;51.044;13.788;2023-06-01T11:21:21;5.13;;;2.67;;
74245;SDS011;62601;51.044;13.788;2023-06-01T11:23:41;3.10;;;2.80;;
74245;SDS011;62601;51.044;13.788;2023-06-01T11:26:01;4.33;;;3.10;;
74245;SDS011;62601;51.044;13.788;2023-06-01T11:28:25;4.60;;;2.83;;
74245;SDS011;62601;51.044;13.788;2023-06-01T11:30:45;4.00;;;2.90;;
74245;SDS011;62601;51.044;13.788;2023-06-01T11:33:05;7.80;;;3.00;;
74245;SDS011;62601;51.044;13.788;2023-06-01T11:35:25;6.67;;;3.20;;
74245;SDS011;62601;51.044;13.788;2023-06-01T11:37:45;4.10;;;2.80;;
74245;SDS011;62601;51.044;13.788;2023-06-01T11:40:06;4.10;;;3.10;;
74245;SDS011;62601;51.044;13.788;2023-06-01T11:42:33;4.93;;;2.87;;
74245;SDS011;62601;51.044;13.788;2023-06-01T11:44:57;5.03;;;3.17;;
74245;SDS011;62601;51.044;13.788;2023-06-01T11:47:17;4.00;;;2.90;;
74245;SDS011;62601;51.044;13.788;2023-06-01T11:49:48;3.90;;;3.47;;
74245;SDS011;62601;51.044;13.788;2023-06-01T11:52:08;4.20;;;3.53;;
74245;SDS011;62601;51.044;13.788;2023-06-01T11:54:28;2.80;;;2.60;;
74245;SDS011;62601;51.044;13.788;2023-06-01T11:56:49;7.17;;;3.80;;
74245;SDS011;62601;51.044;13.788;2023-06-01T11:59:09;6.27;;;3.30;;
74245;SDS011;62601;51.044;13.788;2023-06-01T12:01:29;7.07;;;3.63;;
74245;SDS011;62601;51.044;13.788;2023-06-01T12:03:49;4.10;;;3.00;;
74245;SDS011;62601;51.044;13.788;2023-06-01T12:06:18;3.27;;;2.90;;
74245;SDS011;62601;51.044;13.788;2023-06-01T12:08:38;5.47;;;3.43;;
74245;SDS011;62601;51.044;13.788;2023-06-01T12:10:58;6.40;;;3.40;;
74245;SDS011;62601;51.044;13.788;2023-06-01T12:13:18;10.00;;;3.93;;
74245;SDS011;62601;51.044;13.788;2023-06-01T12:15:39;3.97;;;3.30;;
74245;SDS011;62601;51.044;13.788;2023-06-01T12:17:59;5.13;;;3.50;;
74245;SDS011;62601;51.044;13.788;2023-06-01T12:20:29;5.97;;;3.63;;
74245;SDS011;62601;51.044;13.788;2023-06-01T12:22:50;6.03;;;4.00;;
74245;SDS011;62601;51.044;13.788;2023-06-01T12:25:10;4.00;;;3.47;;
74245;SDS011;62601;51.044;13.788;2023-06-01T12:27:30;6.20;;;3.23;;
74245;SDS011;62601;51.044;13.788;2023-06-01T12:29:51;5.30;;;3.73;;
74245;SDS011;62601;51.044;13.788;2023-06-01T12:32:11;4.20;;;3.80;;
74245;SDS011;62601;51.044;13.788;2023-06-01T12:34:32;5.77;;;4.23;;
74245;SDS011;62601;51.044;13.788;2023-06-01T12:36:52;5.20;;;4.00;;
74245;SDS011;62601;51.044;13.788;2023-06-01T12:39:12;3.73;;;3.40;;
74245;SDS011;62601;51.044;13.788;2023-06-01T12:41:32;5.77;;;4.17;;
74245;SDS011;62601;51.044;13.788;2023-06-01T12:43:52;5.53;;;3.90;;
74245;SDS011;62601;51.044;13.788;2023-06-01T12:46:26;9.47;;;3.60;;
74245;SDS011;62601;51.044;13.788;2023-06-01T12:48:46;4.77;;;3.50;;
74245;SDS011;62601;51.044;13.788;2023-06-01T12:51:06;4.73;;;4.13;;
74245;SDS011;62601;51.044;13.788;2023-06-01T12:53:30;4.33;;;3.93;;
74245;SDS011;62601;51.044;13.788;2023-06-01T12:55:50;5.30;;;4.53;;
74245;SDS011;62601;51.044;13.788;2023-06-01T12:58:10;4.53;;;4.23;;
74245;SDS011;62601;51.044;13.788;2023-06-01T13:00:30;5.90;;;5.23;;
74245;SDS011;62601;51.044;13.788;2023-06-01T13:02:50;5.07;;;4.57;;
74245;SDS011;62601;51.044;13.788;2023-06-01T13:05:10;5.73;;;4.40;;
74245;SDS011;62601;51.044;13.788;2023-06-01T13:07:30;6.53;;;4.60;;
74245;SDS011;62601;51.044;13.788;2023-06-01T13:09:50;5.77;;;4.17;;
74245;SDS011;62601;51.044;13.788;2023-06-01T13:12:10;5.30;;;4.80;;
74245;SDS011;62601;51.044;13.788;2023-06-01T13:14:31;4.90;;;4.20;;
74245;SDS011;62601;51.044;13.788;2023-06-01T13:16:51;6.30;;;4.40;;
74245;SDS011;62601;51.044;13.788;2023-06-01T13:19:11;10.90;;;4.77;;
74245;SDS011;62601;51.044;13.788;2023-06-01T13:21:31;7.07;;;6.03;;
74245;SDS011;62601;51.044;13.788;2023-06-01T13:23:51;5.47;;;4.97;;
74245;SDS011;62601;51.044;13.788;2023-06-01T13:26:12;5.53;;;5.00;;
74245;SDS011;62601;51.044;13.788;2023-06-01T13:28:32;6.97;;;5.30;;
74245;SDS011;62601;51.044;13.788;2023-06-01T13:30:52;6.90;;;5.70;;
74245;SDS011;62601;51.044;13.788;2023-06-01T13:33:12;11.70;;;5.40;;
74245;SDS011;62601;51.044;13.788;2023-06-01T13:35:32;8.53;;;6.37;;
74245;SDS011;62601;51.044;13.788;2023-06-01T13:37:53;5.30;;;4.80;;
74245;SDS011;62601;51.044;13.788;2023-06-01T13:40:13;6.70;;;5.10;;
74245;SDS011;62601;51.044;13.788;2023-06-01T13:42:33;8.30;;;5.30;;
74245;SDS011;62601;51.044;13.788;2023-06-01T13:44:53;6.17;;;5.57;;
74245;SDS011;62601;51.044;13.788;2023-06-01T13:47:13;6.47;;;5.80;;
74245;SDS011;62601;51.044;13.788;2023-06-01T13:49:33;5.87;;;5.27;;
74245;SDS011;62601;51.044;13.788;2023-06-01T13:51:53;7.83;;;4.83;;
74245;SDS011;62601;51.044;13.788;2023-06-01T13:54:13;6.27;;;5.67;;
74245;SDS011;62601;51.044;13.788;2023-06-01T13:56:33;6.17;;;5.57;;
74245;SDS011;62601;51.044;13.788;2023-06-01T13:58:53;6.00;;;5.40;;
74245;SDS011;62601;51.044;13.788;2023-06-01T14:01:14;6.27;;;5.63;;
74245;SDS011;62601;51.044;13.788;2023-06-01T14:03:34;6.47;;;5.87;;
74245;SDS011;62601;51.044;13.788;2023-06-01T14:05:54;7.43;;;6.47;;
74245;SDS011;62601;51.044;13.788;2023-06-01T14:08:14;7.37;;;6.47;;
74245;SDS011;62601;51.044;13.788;2023-06-01T14:10:34;7.53;;;6.37;;
74245;SDS011;62601;51.044;13.788;2023-06-01T14:12:54;11.30;;;7.40;;
74245;SDS011;62601;51.044;13.788;2023-06-01T14:15:14;7.30;;;5.90;;
74245;SDS011;62601;51.044;13.788;2023-06-01T14:17:34;6.67;;;6.03;;